createdAt,value
2022-12-08T00:01:07.978Z,100588.59
2022-12-08T00:03:35.675Z,100581.50
2022-12-08T00:06:22.259Z,100584.94
2022-12-08T00:09:07.606Z,100584.44
2022-12-08T00:11:34.188Z,100585.25
2022-12-08T00:14:01.312Z,100583.25
2022-12-08T00:16:27.937Z,100573.47
2022-12-08T00:18:54.581Z,100577.75
2022-12-08T00:21:21.128Z,100574.28
2022-12-08T00:23:47.675Z,100574.28
2022-12-08T00:26:14.252Z,100573.47
2022-12-08T00:28:40.799Z,100567.53
2022-12-08T00:31:08.901Z,100566.72
2022-12-08T00:33:36.367Z,100570.34
2022-12-08T00:36:11.136Z,100558.28
2022-12-08T00:38:38.151Z,100563.59
2022-12-08T00:41:08.833Z,100561.13
2022-12-08T00:43:35.365Z,100554.19
2022-12-08T00:46:01.978Z,100550.06
2022-12-08T00:48:28.578Z,100550.06
2022-12-08T00:50:55.114Z,100544.34
2022-12-08T00:53:21.704Z,100545.97
2022-12-08T00:55:48.243Z,100553.06
2022-12-08T00:58:14.785Z,100553.06
2022-12-08T01:00:42.259Z,100553.28
2022-12-08T01:03:12.503Z,100559.38
2022-12-08T01:05:39.596Z,100552.28
2022-12-08T01:08:07.281Z,100549.63
2022-12-08T01:10:38.001Z,100554.09
2022-12-08T01:13:04.785Z,100554.09
2022-12-08T01:15:31.337Z,100564.31
2022-12-08T01:17:57.894Z,100565.16
2022-12-08T01:20:24.547Z,100562.13
2022-12-08T01:22:51.103Z,100556.66
2022-12-08T01:25:17.699Z,100557.50
2022-12-08T01:27:44.258Z,100561.78
2022-12-08T01:30:11.195Z,100557.94
2022-12-08T01:32:37.813Z,100553.47
2022-12-08T01:35:04.544Z,100556.75
2022-12-08T01:37:31.115Z,100548.81
2022-12-08T01:39:57.665Z,100547.81
2022-12-08T01:42:24.990Z,100540.25
2022-12-08T01:45:03.013Z,100539.41
2022-12-08T01:47:35.032Z,100540.25
2022-12-08T01:50:02.756Z,100529.81
2022-12-08T01:52:38.037Z,100529.34
2022-12-08T01:55:31.341Z,100528.53
2022-12-08T01:58:02.440Z,100521.63
2022-12-08T02:00:28.978Z,100520.31
2022-12-08T02:02:59.683Z,100519.31
2022-12-08T02:05:37.753Z,100516.22
2022-12-08T02:08:08.172Z,100508.28
2022-12-08T02:10:37.405Z,100509.25
2022-12-08T02:13:05.829Z,100506.16
2022-12-08T02:15:58.932Z,100503.34
2022-12-08T02:19:22.420Z,100509.66
2022-12-08T02:21:49.972Z,100501.69
2022-12-08T02:24:38.302Z,100499.06
2022-12-08T02:27:37.102Z,100499.06
2022-12-08T02:30:06.820Z,100489.09
2022-12-08T02:32:42.344Z,100489.94
2022-12-08T02:35:14.744Z,100482.78
2022-12-08T02:37:47.504Z,100479.59
2022-12-08T02:40:30.726Z,100479.03
2022-12-08T02:43:10.061Z,100474.75
2022-12-08T02:45:41.386Z,100475.03
2022-12-08T02:48:09.195Z,100470.38
2022-12-08T02:50:35.736Z,100471.19
2022-12-08T02:55:55.624Z,100462.25
2022-12-08T02:58:35.435Z,100461.44
2022-12-08T03:01:30.100Z,100461.59
2022-12-08T03:04:29.756Z,100459.34
2022-12-08T03:07:02.844Z,100453.41
2022-12-08T03:09:58.750Z,100455.22
2022-12-08T03:12:38.686Z,100450.13
2022-12-08T03:15:09.745Z,100449.47
2022-12-08T03:17:37.340Z,100446.03
2022-12-08T03:20:07.663Z,100442.09
2022-12-08T03:22:34.419Z,100437.78
2022-12-08T03:25:01.546Z,100432.69
2022-12-08T03:27:29.954Z,100438.00
2022-12-08T03:29:58.185Z,100439.97
2022-12-08T03:33:02.411Z,100431.22
2022-12-08T03:35:31.635Z,100425.91
2022-12-08T03:38:10.783Z,100427.75
2022-12-08T03:40:38.002Z,100429.56
2022-12-08T03:43:04.704Z,100412.06
2022-12-08T03:45:31.392Z,100413.50
2022-12-08T03:47:57.937Z,100398.47
2022-12-08T03:50:25.051Z,100400.72
2022-12-08T03:52:51.608Z,100400.53
2022-12-08T03:55:18.596Z,100395.72
2022-12-08T03:57:45.152Z,100392.69
2022-12-08T04:00:14.812Z,100389.03
2022-12-08T04:02:41.468Z,100389.66
2022-12-08T04:05:08.540Z,100387.66
2022-12-08T04:07:35.085Z,100380.53
2022-12-08T04:10:01.897Z,100376.88
2022-12-08T04:12:28.630Z,100369.13
2022-12-08T04:14:55.216Z,100370.13
2022-12-08T04:17:21.759Z,100370.13
2022-12-08T04:19:48.303Z,100368.50
2022-12-08T04:22:14.855Z,100361.75
2022-12-08T04:24:41.386Z,100363.56
2022-12-08T04:27:07.943Z,100366.19
2022-12-08T04:29:34.480Z,100362.94
2022-12-08T04:32:01.036Z,100351.06
2022-12-08T04:34:27.567Z,100358.19
2022-12-08T04:36:54.136Z,100355.72
2022-12-08T04:39:20.684Z,100366.31
2022-12-08T04:41:47.269Z,100367.31
2022-12-08T04:44:13.829Z,100363.03
2022-12-08T04:46:43.365Z,100364.03
2022-12-08T04:49:10.539Z,100372.00
2022-12-08T04:51:37.077Z,100366.88
2022-12-08T04:54:03.651Z,100370.31
2022-12-08T04:56:30.186Z,100366.03
2022-12-08T04:58:56.765Z,100368.50
2022-12-08T05:01:23.384Z,100359.72
2022-12-08T05:03:49.958Z,100363.03
2022-12-08T05:06:16.527Z,100351.44
2022-12-08T05:08:43.669Z,100345.13
2022-12-08T05:11:11.854Z,100343.75
2022-12-08T05:13:38.436Z,100342.56
2022-12-08T05:16:05.878Z,100338.72
2022-12-08T05:18:32.612Z,100334.25
2022-12-08T05:20:59.702Z,100335.72
2022-12-08T05:23:26.855Z,100342.84
2022-12-08T05:25:53.479Z,100344.47
2022-12-08T05:28:40.813Z,100332.25
2022-12-08T05:31:07.039Z,100331.44
2022-12-08T05:33:33.630Z,100336.72
2022-12-08T05:36:00.192Z,100337.91
2022-12-08T05:38:26.719Z,100329.31
2022-12-08T05:40:53.270Z,100328.53
2022-12-08T05:43:19.812Z,100326.06
2022-12-08T05:45:46.395Z,100322.75
2022-12-08T05:48:13.061Z,100327.25
2022-12-08T05:50:39.931Z,100329.25
2022-12-08T05:53:06.503Z,100327.59
2022-12-08T05:55:33.073Z,100318.22
2022-12-08T05:58:03.158Z,100320.25
2022-12-08T06:00:34.940Z,100328.38
2022-12-08T06:03:01.731Z,100325.72
2022-12-08T06:05:28.417Z,100324.09
2022-12-08T06:07:55.013Z,100322.25
2022-12-08T06:10:21.599Z,100321.44
2022-12-08T06:12:48.162Z,100324.88
2022-12-08T06:15:14.728Z,100323.06
2022-12-08T06:17:41.302Z,100321.44
2022-12-08T06:20:08.405Z,100314.94
2022-12-08T06:22:35.289Z,100321.50
2022-12-08T06:25:04.980Z,100320.50
2022-12-08T06:27:34.418Z,100328.69
2022-12-08T06:30:01.040Z,100322.22
2022-12-08T06:32:27.831Z,100326.50
2022-12-08T06:34:54.418Z,100322.81
2022-12-08T06:37:20.976Z,100328.78
2022-12-08T06:39:47.515Z,100331.44
2022-12-08T06:42:32.869Z,100333.06
2022-12-08T06:45:00.162Z,100335.88
2022-12-08T06:47:26.706Z,100343.03
2022-12-08T06:49:53.294Z,100346.03
2022-12-08T06:52:19.826Z,100347.84
2022-12-08T06:54:46.370Z,100355.00
2022-12-08T06:57:12.971Z,100364.94
2022-12-08T06:59:40.025Z,100357.38
2022-12-08T07:02:06.983Z,100358.38
2022-12-08T07:04:33.601Z,100353.28
2022-12-08T07:07:00.163Z,100351.00
2022-12-08T07:09:26.794Z,100357.31
2022-12-08T07:11:53.355Z,100352.00
2022-12-08T07:14:23.686Z,100355.84
2022-12-08T07:16:51.539Z,100355.84
2022-12-08T07:19:18.654Z,100353.19
2022-12-08T07:21:45.201Z,100350.56
2022-12-08T07:24:11.790Z,100353.19
2022-12-08T07:26:38.333Z,100346.25
2022-12-08T07:29:04.913Z,100346.25
2022-12-08T07:31:31.792Z,100345.88
2022-12-08T07:33:58.588Z,100346.72
2022-12-08T07:36:25.787Z,100352.63
2022-12-08T07:38:55.647Z,100348.00
2022-12-08T07:41:25.355Z,100347.59
2022-12-08T07:43:53.606Z,100351.69
2022-12-08T07:46:22.057Z,100346.22
2022-12-08T07:48:48.794Z,100348.69
2022-12-08T07:51:16.319Z,100347.66
2022-12-08T07:53:51.677Z,100343.03
2022-12-08T07:56:20.687Z,100352.59
2022-12-08T07:58:47.266Z,100344.84
2022-12-08T08:01:20.934Z,100347.66
2022-12-08T08:03:47.718Z,100354.81
2022-12-08T08:06:14.431Z,100349.69
2022-12-08T08:08:41.009Z,100346.22
2022-12-08T08:11:15.784Z,100339.28
2022-12-08T08:13:45.873Z,100341.28
2022-12-08T08:16:13.770Z,100343.94
2022-12-08T08:18:40.459Z,100351.06
2022-12-08T08:21:43.197Z,100354.09
2022-12-08T08:23:54.144Z,100354.25
2022-12-08T08:26:20.712Z,100356.91
2022-12-08T08:28:48.245Z,100358.75
2022-12-08T08:31:14.953Z,100352.97
2022-12-08T08:33:41.588Z,100348.53
2022-12-08T08:36:09.073Z,100357.31
2022-12-08T08:38:40.058Z,100366.69
2022-12-08T08:41:12.686Z,100361.75
2022-12-08T08:43:39.374Z,100360.56
2022-12-08T08:46:06.948Z,100358.09
2022-12-08T08:48:33.678Z,100354.44
2022-12-08T08:51:10.210Z,100355.94
2022-12-08T08:53:37.063Z,100362.03
2022-12-08T08:56:05.201Z,100360.03
2022-12-08T08:58:31.766Z,100358.66
2022-12-08T09:00:58.350Z,100369.88
2022-12-08T09:03:24.927Z,100368.66
2022-12-08T09:05:51.574Z,100369.50
2022-12-08T09:08:18.729Z,100368.50
2022-12-08T09:10:45.449Z,100364.84
2022-12-08T09:13:11.997Z,100356.88
2022-12-08T09:15:38.777Z,100348.16
2022-12-08T09:18:06.781Z,100345.50
2022-12-08T09:20:34.467Z,100347.31
2022-12-08T09:23:01.333Z,100342.00
2022-12-08T09:25:28.496Z,100337.09
2022-12-08T09:27:55.078Z,100347.84
2022-12-08T09:30:21.795Z,100348.88
2022-12-08T09:32:48.368Z,100351.88
2022-12-08T09:35:14.926Z,100349.22
2022-12-08T09:37:41.469Z,100341.50
2022-12-08T09:40:08.533Z,100331.09
2022-12-08T09:42:51.787Z,100332.91
2022-12-08T09:45:19.735Z,100320.88
2022-12-08T09:47:53.980Z,100317.03
2022-12-08T09:50:45.555Z,100321.50
2022-12-08T09:53:19.805Z,100317.03
2022-12-08T09:56:08.350Z,100317.84
2022-12-08T09:58:47.584Z,100308.06
2022-12-08T10:01:14.399Z,100304.44
2022-12-08T10:03:41.826Z,100305.22
2022-12-08T10:06:19.880Z,100312.81
2022-12-08T10:08:55.516Z,100308.97
2022-12-08T10:11:47.345Z,100305.31
2022-12-08T10:14:33.569Z,100290.06
2022-12-08T10:17:34.586Z,100296.63
2022-12-08T10:20:12.794Z,100301.72
2022-12-08T10:22:44.466Z,100301.72
2022-12-08T10:25:19.814Z,100294.59
2022-12-08T10:27:52.416Z,100296.25
2022-12-08T10:30:20.373Z,100290.31
2022-12-08T10:32:49.501Z,100294.78
2022-12-08T10:35:17.637Z,100291.34
2022-12-08T10:37:58.417Z,100289.69
2022-12-08T10:40:28.156Z,100289.06
2022-12-08T10:42:57.153Z,100287.44
2022-12-08T10:45:29.759Z,100280.47
2022-12-08T10:48:04.505Z,100280.69
2022-12-08T10:50:36.810Z,100276.84
2022-12-08T10:53:12.800Z,100281.47
2022-12-08T10:55:51.111Z,100279.03
2022-12-08T10:58:41.292Z,100281.88
2022-12-08T11:01:20.626Z,100276.38
2022-12-08T11:03:58.064Z,100275.56
2022-12-08T11:06:30.549Z,100275.56
2022-12-08T11:08:59.348Z,100265.53
2022-12-08T11:11:45.156Z,100268.34
2022-12-08T11:14:29.134Z,100263.06
2022-12-08T11:17:07.467Z,100260.41
2022-12-08T11:19:38.499Z,100264.50
2022-12-08T11:22:27.615Z,100260.06
2022-12-08T11:25:11.835Z,100258.84
2022-12-08T11:27:41.187Z,100256.84
2022-12-08T11:30:15.609Z,100252.34
2022-12-08T11:32:44.858Z,100247.72
2022-12-08T11:35:23.173Z,100248.50
2022-12-08T11:37:49.719Z,100239.59
2022-12-08T11:40:26.506Z,100244.47
2022-12-08T11:43:25.270Z,100242.03
2022-12-08T11:45:59.229Z,100244.66
2022-12-08T11:48:35.394Z,100241.41
2022-12-08T11:51:01.870Z,100242.22
2022-12-08T11:53:47.820Z,100235.28
2022-12-08T11:56:24.126Z,100239.78
2022-12-08T11:59:00.242Z,100241.78
2022-12-08T12:01:28.390Z,100241.78
2022-12-08T12:04:06.754Z,100237.69
2022-12-08T12:06:57.285Z,100244.81
2022-12-08T12:09:31.301Z,100243.16
2022-12-08T12:12:19.259Z,100236.88
2022-12-08T12:14:59.668Z,100239.88
2022-12-08T12:17:56.668Z,100244.34
2022-12-08T12:20:30.638Z,100239.88
2022-12-08T12:23:07.180Z,100246.19
2022-12-08T12:25:35.324Z,100236.59
2022-12-08T12:28:05.334Z,100245.19
2022-12-08T12:30:51.629Z,100238.03
2022-12-08T12:33:19.492Z,100235.41
2022-12-08T12:35:50.279Z,100233.41
2022-12-08T12:38:38.486Z,100228.28
2022-12-08T12:41:05.649Z,100228.72
2022-12-08T12:43:35.045Z,100227.72
2022-12-08T12:46:23.409Z,100224.88
2022-12-08T12:48:50.940Z,100219.56
2022-12-08T12:51:43.646Z,100223.88
2022-12-08T12:54:24.632Z,100226.72
2022-12-08T12:57:14.133Z,100229.19
2022-12-08T12:59:53.319Z,100232.81
2022-12-08T13:02:27.310Z,100232.00
2022-12-08T13:04:59.480Z,100223.41
2022-12-08T13:07:28.909Z,100229.53
2022-12-08T13:10:04.523Z,100226.28
2022-12-08T13:12:31.308Z,100223.81
2022-12-08T13:15:04.464Z,100230.09
2022-12-08T13:17:33.151Z,100226.00
2022-12-08T13:20:03.951Z,100231.13
2022-12-08T13:23:00.655Z,100227.19
2022-12-08T13:25:39.640Z,100231.50
2022-12-08T13:28:22.864Z,100227.19
2022-12-08T13:30:51.749Z,100230.69
2022-12-08T13:33:24.231Z,100224.56
2022-12-08T13:35:57.661Z,100230.88
2022-12-08T13:38:28.230Z,100227.84
2022-12-08T13:40:55.996Z,100233.94
2022-12-08T13:43:25.453Z,100235.78
2022-12-08T13:55:58.691Z,100224.81
2022-12-08T13:57:38.017Z,100233.03
2022-12-08T14:00:08.642Z,100234.00
2022-12-08T14:02:47.345Z,100235.47
2022-12-08T14:05:34.894Z,100231.81
2022-12-08T14:08:02.487Z,100238.09
2022-12-08T14:10:31.869Z,100237.94
2022-12-08T14:13:04.401Z,100239.78
2022-12-08T14:15:38.261Z,100240.75
2022-12-08T14:18:06.383Z,100241.59
2022-12-08T14:20:51.783Z,100239.13
2022-12-08T14:23:21.312Z,100240.13
2022-12-08T14:25:48.146Z,100242.97
2022-12-08T14:28:14.831Z,100235.22
2022-12-08T14:30:41.422Z,100242.53
2022-12-08T14:33:13.774Z,100240.91
2022-12-08T14:35:40.326Z,100248.00
2022-12-08T14:38:13.909Z,100245.38
2022-12-08T14:40:43.020Z,100253.50
2022-12-08T14:43:09.545Z,100250.84
2022-12-08T14:45:39.139Z,100249.03
2022-12-08T14:48:39.260Z,100246.38
2022-12-08T14:51:16.852Z,100250.66
2022-12-08T14:54:01.198Z,100248.63
2022-12-08T14:56:37.004Z,100242.53
2022-12-08T14:59:13.191Z,100239.06
2022-12-08T15:01:40.342Z,100249.28
2022-12-08T15:04:12.822Z,100245.63
2022-12-08T15:06:55.527Z,100246.44
2022-12-08T15:09:40.957Z,100247.06
2022-12-08T15:12:13.430Z,100246.25
2022-12-08T15:15:14.955Z,100251.56
2022-12-08T15:17:51.653Z,100250.38
2022-12-08T15:20:39.305Z,100249.53
2022-12-08T15:23:05.898Z,100254.00
2022-12-08T15:25:32.715Z,100255.84
2022-12-08T15:27:59.322Z,100256.03
2022-12-08T15:30:26.526Z,100256.03
2022-12-08T15:32:54.241Z,100253.56
2022-12-08T15:35:21.363Z,100263.34
2022-12-08T15:37:47.984Z,100256.56
2022-12-08T15:40:19.780Z,100268.00
2022-12-08T15:42:46.372Z,100267.56
2022-12-08T15:45:16.730Z,100269.38
2022-12-08T15:47:43.985Z,100272.03
2022-12-08T15:50:18.990Z,100269.38
2022-12-08T15:52:45.714Z,100272.19
2022-12-08T15:55:19.143Z,100269.56
2022-12-08T15:58:45.020Z,100271.22
2022-12-08T16:00:56.325Z,100270.38
2022-12-08T16:04:13.096Z,100272.84
2022-12-08T16:09:12.950Z,100269.19
2022-12-08T16:12:09.088Z,100267.38
2022-12-08T16:17:23.858Z,100274.75
2022-12-08T16:19:50.415Z,100275.38
2022-12-08T16:25:21.795Z,100273.16
2022-12-08T16:28:01.395Z,100274.81
2022-12-08T16:30:32.532Z,100281.94
2022-12-08T16:32:59.106Z,100288.88
2022-12-08T16:35:25.627Z,100296.81
2022-12-08T16:37:52.170Z,100301.28
2022-12-08T16:40:18.874Z,100301.47
2022-12-08T16:42:50.047Z,100298.63
2022-12-08T16:45:21.027Z,100293.53
2022-12-08T16:47:49.993Z,100294.53
2022-12-08T16:50:28.178Z,100298.19
2022-12-08T16:53:09.011Z,100301.03
2022-12-08T16:55:35.650Z,100297.56
2022-12-08T16:58:03.570Z,100294.47
2022-12-08T17:00:36.621Z,100291.19
2022-12-08T17:03:04.709Z,100289.34
2022-12-08T17:05:31.311Z,100291.19
2022-12-08T17:07:59.134Z,100293.00
2022-12-08T17:10:28.545Z,100295.47
2022-12-08T17:12:56.540Z,100299.94
2022-12-08T17:15:25.067Z,100296.28
2022-12-08T17:17:52.301Z,100293.84
2022-12-08T17:20:22.305Z,100295.47
2022-12-08T17:22:49.393Z,100300.59
2022-12-08T17:25:16.232Z,100301.41
2022-12-08T17:27:43.053Z,100300.41
2022-12-08T17:30:11.859Z,100302.03
2022-12-08T17:32:39.224Z,100307.34
2022-12-08T17:35:06.905Z,100302.66
2022-12-08T17:37:33.915Z,100306.94
2022-12-08T17:40:00.828Z,100310.25
2022-12-08T17:42:27.441Z,100310.25
2022-12-08T17:44:54.663Z,100318.19
2022-12-08T17:47:21.583Z,100325.94
2022-12-08T17:49:48.553Z,100324.50
2022-12-08T17:52:15.087Z,100326.31
2022-12-08T17:54:41.651Z,100328.13
2022-12-08T17:57:08.176Z,100328.97
2022-12-08T17:59:34.733Z,100322.22
2022-12-08T18:02:01.413Z,100320.56
2022-12-08T18:04:28.419Z,100328.53
2022-12-08T18:06:55.218Z,100331.34
2022-12-08T18:09:22.023Z,100326.22
2022-12-08T18:11:48.817Z,100323.78
2022-12-08T18:14:16.224Z,100329.25
2022-12-08T18:16:45.272Z,100330.91
2022-12-08T18:19:12.936Z,100320.50
2022-12-08T18:21:40.569Z,100320.50
2022-12-08T18:24:08.717Z,100324.78
2022-12-08T18:26:35.532Z,100322.13
2022-12-08T18:29:02.142Z,100321.31
2022-12-08T18:31:28.865Z,100321.31
2022-12-08T18:33:55.650Z,100323.94
2022-12-08T18:36:25.019Z,100324.41
2022-12-08T18:38:52.576Z,100322.56
2022-12-08T18:41:24.448Z,100321.78
2022-12-08T18:43:51.833Z,100329.13
2022-12-08T18:46:18.473Z,100325.47
2022-12-08T18:48:47.302Z,100327.16
2022-12-08T18:51:15.909Z,100336.53
2022-12-08T18:53:43.002Z,100332.03
2022-12-08T18:56:18.487Z,100331.06
2022-12-08T18:58:45.019Z,100333.72
2022-12-08T19:01:13.965Z,100338.78
2022-12-08T19:03:48.840Z,100336.34
2022-12-08T19:06:25.188Z,100338.00
2022-12-08T19:08:51.729Z,100343.47
2022-12-08T19:11:19.121Z,100347.13
2022-12-08T19:13:46.503Z,100354.25
2022-12-08T19:16:13.589Z,100356.44
2022-12-08T19:18:40.277Z,100358.66
2022-12-08T19:21:07.587Z,100357.63
2022-12-08T19:23:34.665Z,100355.19
2022-12-08T19:26:02.081Z,100368.59
2022-12-08T19:28:28.904Z,100359.00
2022-12-08T19:30:55.559Z,100364.31
2022-12-08T19:33:22.179Z,100359.19
2022-12-08T19:35:52.644Z,100362.69
2022-12-08T19:38:19.635Z,100370.63
2022-12-08T19:41:05.024Z,100359.19
2022-12-08T19:43:50.167Z,100369.78
2022-12-08T19:46:17.123Z,100359.00
2022-12-08T19:48:44.020Z,100357.38
2022-12-08T19:51:10.732Z,100361.66
2022-12-08T19:53:37.391Z,100368.59
2022-12-08T19:56:04.118Z,100373.72
2022-12-08T19:58:30.669Z,100371.91
2022-12-08T20:00:57.203Z,100375.34
2022-12-08T20:03:23.905Z,100379.63
2022-12-08T20:05:55.434Z,100377.81
2022-12-08T20:08:22.180Z,100378.63
2022-12-08T20:10:48.840Z,100380.28
2022-12-08T20:13:34.158Z,100382.09
2022-12-08T20:16:00.761Z,100386.38
2022-12-08T20:18:28.688Z,100388.22
2022-12-08T20:20:55.328Z,100384.75
2022-12-08T20:23:22.107Z,100376.19
2022-12-08T20:25:48.749Z,100390.22
2022-12-08T20:28:15.357Z,100387.78
2022-12-08T20:30:42.807Z,100379.00
2022-12-08T20:33:12.622Z,100390.78
2022-12-08T20:35:39.195Z,100383.19
2022-12-08T20:38:07.048Z,100383.19
2022-12-08T20:40:33.644Z,100384.22
2022-12-08T20:43:00.322Z,100389.50
2022-12-08T20:45:26.911Z,100389.50
2022-12-08T20:47:53.475Z,100397.44
2022-12-08T20:50:20.183Z,100400.94
2022-12-08T20:52:46.766Z,100403.38
2022-12-08T20:55:13.332Z,100406.84
2022-12-08T20:57:40.131Z,100411.13
2022-12-08T21:00:07.784Z,100408.31
2022-12-08T21:02:35.017Z,100410.78
2022-12-08T21:05:01.781Z,100414.25
2022-12-08T21:07:28.487Z,100418.53
2022-12-08T21:09:55.092Z,100413.25
2022-12-08T21:12:21.659Z,100418.53
2022-12-08T21:14:48.349Z,100413.06
2022-12-08T21:17:15.090Z,100420.16
2022-12-08T21:19:41.835Z,100422.63
2022-12-08T21:22:08.525Z,100418.97
2022-12-08T21:24:35.180Z,100422.47
2022-12-08T21:27:01.947Z,100425.09
2022-12-08T21:29:28.682Z,100421.00
2022-12-08T21:31:57.292Z,100430.59
2022-12-08T21:34:25.199Z,100434.25
2022-12-08T21:36:52.914Z,100431.78
2022-12-08T21:39:20.427Z,100436.22
2022-12-08T21:42:05.582Z,100435.44
2022-12-08T21:44:35.293Z,100434.78
2022-12-08T21:47:02.758Z,100439.44
2022-12-08T21:49:29.485Z,100437.78
2022-12-08T21:51:56.362Z,100432.69
2022-12-08T21:54:23.024Z,100441.63
2022-12-08T21:56:50.192Z,100434.50
2022-12-08T21:59:18.126Z,100438.00
2022-12-08T22:01:45.224Z,100446.72
2022-12-08T22:04:12.623Z,100439.81
2022-12-08T22:06:39.570Z,100444.09
2022-12-08T22:09:07.197Z,100442.28
2022-12-08T22:11:34.065Z,100445.53
2022-12-08T22:14:00.726Z,100444.75
2022-12-08T22:16:27.413Z,100450.03
2022-12-08T22:18:54.183Z,100443.72
2022-12-08T22:21:21.916Z,100443.72
2022-12-08T22:23:49.768Z,100450.66
2022-12-08T22:26:16.335Z,100447.00
2022-12-08T22:28:43.311Z,100442.91
2022-12-08T22:31:19.408Z,100448.84
2022-12-08T22:33:46.181Z,100450.47
2022-12-08T22:36:18.436Z,100443.38
2022-12-08T22:38:45.467Z,100449.66
2022-12-08T22:41:12.092Z,100451.31
2022-12-08T22:43:38.921Z,100453.13
2022-12-08T22:46:12.114Z,100452.28
2022-12-08T22:48:39.244Z,100447.00
2022-12-08T22:51:06.343Z,100447.19
2022-12-08T22:53:33.056Z,100452.69
2022-12-08T22:55:59.935Z,100451.00
2022-12-08T22:58:26.672Z,100452.03
2022-12-08T23:00:53.322Z,100449.56
2022-12-08T23:03:20.136Z,100452.22
2022-12-08T23:05:46.966Z,100447.75
2022-12-08T23:08:15.864Z,100451.41
2022-12-08T23:10:43.204Z,100443.28
2022-12-08T23:13:10.668Z,100452.88
2022-12-08T23:15:37.823Z,100444.09
2022-12-08T23:18:05.166Z,100441.25
2022-12-08T23:20:32.396Z,100443.72
2022-12-08T23:22:59.295Z,100446.38
2022-12-08T23:25:26.014Z,100439.25
2022-12-08T23:27:52.608Z,100445.19
2022-12-08T23:30:19.128Z,100448.66
2022-12-08T23:32:45.736Z,100443.38
2022-12-08T23:35:12.436Z,100445.00
2022-12-08T23:37:39.263Z,100438.88
2022-12-08T23:40:07.040Z,100437.06
2022-12-08T23:42:33.874Z,100438.06
2022-12-08T23:45:00.473Z,100451.31
2022-12-08T23:47:27.352Z,100445.00
2022-12-08T23:49:53.986Z,100444.34
2022-12-08T23:52:20.633Z,100443.38
2022-12-08T23:54:49.937Z,100446.19
2022-12-08T23:57:16.636Z,100445.00
2022-12-08T23:59:43.170Z,100440.25
